sensor_id;sensor_type;location;lat;lon;timestamp;P1;durP1;ratioP1;P2;durP2;ratioP2
28509;SDS011;15723;55.684;37.928;2023-02-12T00:00:37;23.90;;;13.23;;
28509;SDS011;15723;55.684;37.928;2023-02-12T00:03:05;23.35;;;12.57;;
28509;SDS011;15723;55.684;37.928;2023-02-12T00:05:32;24.00;;;12.73;;
28509;SDS011;15723;55.684;37.928;2023-02-12T00:07:58;21.38;;;11.80;;
28509;SDS011;15723;55.684;37.928;2023-02-12T00:10:24;20.00;;;12.05;;
28509;SDS011;15723;55.684;37.928;2023-02-12T00:12:54;21.80;;;12.05;;
28509;SDS011;15723;55.684;37.928;2023-02-12T00:15:20;19.33;;;11.57;;
28509;SDS011;15723;55.684;37.928;2023-02-12T00:17:46;17.88;;;11.30;;
28509;SDS011;15723;55.684;37.928;2023-02-12T00:20:12;15.50;;;10.68;;
28509;SDS011;15723;55.684;37.928;2023-02-12T00:22:38;18.17;;;10.48;;
28509;SDS011;15723;55.684;37.928;2023-02-12T00:25:05;17.95;;;10.95;;
28509;SDS011;15723;55.684;37.928;2023-02-12T00:27:32;16.60;;;10.65;;
28509;SDS011;15723;55.684;37.928;2023-02-12T00:29:59;17.17;;;10.45;;
28509;SDS011;15723;55.684;37.928;2023-02-12T00:32:27;16.33;;;9.88;;
28509;SDS011;15723;55.684;37.928;2023-02-12T00:34:53;14.95;;;8.90;;
28509;SDS011;15723;55.684;37.928;2023-02-12T00:37:19;13.23;;;8.55;;
28509;SDS011;15723;55.684;37.928;2023-02-12T00:39:45;13.13;;;8.00;;
28509;SDS011;15723;55.684;37.928;2023-02-12T00:42:11;8.50;;;5.22;;
28509;SDS011;15723;55.684;37.928;2023-02-12T00:44:38;9.73;;;4.88;;
28509;SDS011;15723;55.684;37.928;2023-02-12T00:47:04;8.50;;;5.38;;
28509;SDS011;15723;55.684;37.928;2023-02-12T00:49:31;8.20;;;5.10;;
28509;SDS011;15723;55.684;37.928;2023-02-12T00:52:01;8.00;;;5.20;;
28509;SDS011;15723;55.684;37.928;2023-02-12T00:54:29;8.25;;;4.90;;
28509;SDS011;15723;55.684;37.928;2023-02-12T00:56:56;7.85;;;4.55;;
28509;SDS011;15723;55.684;37.928;2023-02-12T00:59:28;8.00;;;4.53;;
28509;SDS011;15723;55.684;37.928;2023-02-12T01:01:56;8.35;;;4.90;;
28509;SDS011;15723;55.684;37.928;2023-02-12T01:04:23;6.88;;;4.50;;
28509;SDS011;15723;55.684;37.928;2023-02-12T01:06:49;7.80;;;4.53;;
28509;SDS011;15723;55.684;37.928;2023-02-12T01:09:15;10.90;;;5.15;;
28509;SDS011;15723;55.684;37.928;2023-02-12T01:11:43;9.65;;;4.63;;
28509;SDS011;15723;55.684;37.928;2023-02-12T01:14:09;8.38;;;5.15;;
28509;SDS011;15723;55.684;37.928;2023-02-12T01:16:35;9.77;;;5.47;;
28509;SDS011;15723;55.684;37.928;2023-02-12T01:19:02;9.88;;;4.28;;
28509;SDS011;15723;55.684;37.928;2023-02-12T01:21:30;13.88;;;5.90;;
28509;SDS011;15723;55.684;37.928;2023-02-12T01:23:59;8.98;;;4.88;;
28509;SDS011;15723;55.684;37.928;2023-02-12T01:26:27;11.63;;;5.57;;
28509;SDS011;15723;55.684;37.928;2023-02-12T01:28:56;10.70;;;5.88;;
28509;SDS011;15723;55.684;37.928;2023-02-12T01:31:26;15.90;;;7.05;;
28509;SDS011;15723;55.684;37.928;2023-02-12T01:33:54;14.15;;;7.38;;
28509;SDS011;15723;55.684;37.928;2023-02-12T01:36:22;15.07;;;7.32;;
28509;SDS011;15723;55.684;37.928;2023-02-12T01:38:49;14.10;;;7.10;;
28509;SDS011;15723;55.684;37.928;2023-02-12T01:41:17;12.43;;;7.82;;
28509;SDS011;15723;55.684;37.928;2023-02-12T01:46:40;17.00;;;7.88;;
28509;SDS011;15723;55.684;37.928;2023-02-12T01:49:10;17.35;;;8.68;;
28509;SDS011;15723;55.684;37.928;2023-02-12T01:51:40;14.98;;;8.43;;
28509;SDS011;15723;55.684;37.928;2023-02-12T01:54:09;14.70;;;8.45;;
28509;SDS011;15723;55.684;37.928;2023-02-12T01:56:39;18.25;;;8.57;;
28509;SDS011;15723;55.684;37.928;2023-02-12T01:59:07;14.32;;;7.32;;
28509;SDS011;15723;55.684;37.928;2023-02-12T02:01:34;16.05;;;8.52;;
28509;SDS011;15723;55.684;37.928;2023-02-12T02:04:06;18.92;;;8.90;;
28509;SDS011;15723;55.684;37.928;2023-02-12T02:07:19;18.55;;;6.13;;
28509;SDS011;15723;55.684;37.928;2023-02-12T02:09:30;15.68;;;7.93;;
28509;SDS011;15723;55.684;37.928;2023-02-12T02:12:00;14.43;;;8.45;;
28509;SDS011;15723;55.684;37.928;2023-02-12T02:14:46;18.90;;;9.57;;
28509;SDS011;15723;55.684;37.928;2023-02-12T02:17:30;15.55;;;8.30;;
28509;SDS011;15723;55.684;37.928;2023-02-12T02:33:54;15.13;;;7.63;;
28509;SDS011;15723;55.684;37.928;2023-02-12T02:39:01;12.38;;;6.57;;
28509;SDS011;15723;55.684;37.928;2023-02-12T02:41:43;14.48;;;6.55;;
28509;SDS011;15723;55.684;37.928;2023-02-12T02:44:21;11.02;;;6.57;;
28509;SDS011;15723;55.684;37.928;2023-02-12T02:46:51;9.07;;;5.60;;
28509;SDS011;15723;55.684;37.928;2023-02-12T02:49:24;11.10;;;5.72;;
28509;SDS011;15723;55.684;37.928;2023-02-12T02:52:02;14.10;;;6.18;;
28509;SDS011;15723;55.684;37.928;2023-02-12T02:54:44;8.60;;;4.50;;
28509;SDS011;15723;55.684;37.928;2023-02-12T02:57:24;9.52;;;4.07;;
28509;SDS011;15723;55.684;37.928;2023-02-12T02:59:57;9.02;;;4.68;;
28509;SDS011;15723;55.684;37.928;2023-02-12T03:02:31;9.27;;;4.25;;
28509;SDS011;15723;55.684;37.928;2023-02-12T03:05:03;8.68;;;4.55;;
28509;SDS011;15723;55.684;37.928;2023-02-12T03:07:37;9.27;;;4.32;;
28509;SDS011;15723;55.684;37.928;2023-02-12T03:10:11;13.65;;;4.40;;
28509;SDS011;15723;55.684;37.928;2023-02-12T03:12:57;7.40;;;4.13;;
28509;SDS011;15723;55.684;37.928;2023-02-12T03:15:54;8.13;;;3.97;;
28509;SDS011;15723;55.684;37.928;2023-02-12T03:18:35;8.68;;;4.15;;
28509;SDS011;15723;55.684;37.928;2023-02-12T03:21:12;5.07;;;3.67;;
28509;SDS011;15723;55.684;37.928;2023-02-12T03:23:45;7.43;;;3.25;;
28509;SDS011;15723;55.684;37.928;2023-02-12T03:26:18;10.48;;;4.47;;
28509;SDS011;15723;55.684;37.928;2023-02-12T03:28:52;6.53;;;3.67;;
28509;SDS011;15723;55.684;37.928;2023-02-12T03:31:25;5.70;;;2.80;;
28509;SDS011;15723;55.684;37.928;2023-02-12T03:37:09;4.18;;;2.75;;
28509;SDS011;15723;55.684;37.928;2023-02-12T03:48:01;8.82;;;3.50;;
28509;SDS011;15723;55.684;37.928;2023-02-12T03:50:41;7.05;;;3.90;;
28509;SDS011;15723;55.684;37.928;2023-02-12T03:53:13;11.05;;;5.10;;
28509;SDS011;15723;55.684;37.928;2023-02-12T03:55:40;9.98;;;4.93;;
28509;SDS011;15723;55.684;37.928;2023-02-12T03:58:10;8.90;;;4.53;;
28509;SDS011;15723;55.684;37.928;2023-02-12T04:00:41;11.18;;;4.75;;
28509;SDS011;15723;55.684;37.928;2023-02-12T04:03:07;12.63;;;4.13;;
28509;SDS011;15723;55.684;37.928;2023-02-12T04:05:34;7.28;;;5.00;;
28509;SDS011;15723;55.684;37.928;2023-02-12T04:08:00;11.45;;;4.60;;
28509;SDS011;15723;55.684;37.928;2023-02-12T04:10:31;14.60;;;5.00;;
28509;SDS011;15723;55.684;37.928;2023-02-12T04:13:32;12.18;;;5.43;;
28509;SDS011;15723;55.684;37.928;2023-02-12T04:19:01;11.02;;;5.22;;
28509;SDS011;15723;55.684;37.928;2023-02-12T04:21:37;18.70;;;4.82;;
28509;SDS011;15723;55.684;37.928;2023-02-12T04:30:03;13.15;;;4.68;;
28509;SDS011;15723;55.684;37.928;2023-02-12T04:32:43;9.40;;;4.00;;
28509;SDS011;15723;55.684;37.928;2023-02-12T04:35:41;10.68;;;4.65;;
28509;SDS011;15723;55.684;37.928;2023-02-12T04:38:16;11.90;;;3.97;;
28509;SDS011;15723;55.684;37.928;2023-02-12T04:40:47;10.90;;;4.38;;
28509;SDS011;15723;55.684;37.928;2023-02-12T04:43:24;6.13;;;3.20;;
28509;SDS011;15723;55.684;37.928;2023-02-12T04:45:52;7.90;;;4.20;;
28509;SDS011;15723;55.684;37.928;2023-02-12T04:48:18;9.63;;;4.75;;
28509;SDS011;15723;55.684;37.928;2023-02-12T04:50:44;10.43;;;3.47;;
28509;SDS011;15723;55.684;37.928;2023-02-12T04:53:12;10.60;;;4.05;;
28509;SDS011;15723;55.684;37.928;2023-02-12T04:55:38;10.32;;;4.70;;
28509;SDS011;15723;55.684;37.928;2023-02-12T04:58:04;7.50;;;3.38;;
28509;SDS011;15723;55.684;37.928;2023-02-12T05:00:31;10.88;;;4.15;;
28509;SDS011;15723;55.684;37.928;2023-02-12T05:02:58;8.93;;;4.85;;
28509;SDS011;15723;55.684;37.928;2023-02-12T05:05:24;8.40;;;3.83;;
28509;SDS011;15723;55.684;37.928;2023-02-12T05:07:50;5.65;;;3.50;;
28509;SDS011;15723;55.684;37.928;2023-02-12T05:10:17;9.02;;;3.75;;
28509;SDS011;15723;55.684;37.928;2023-02-12T05:12:43;10.00;;;4.55;;
28509;SDS011;15723;55.684;37.928;2023-02-12T05:15:10;10.23;;;3.45;;
28509;SDS011;15723;55.684;37.928;2023-02-12T05:17:36;9.18;;;4.40;;
28509;SDS011;15723;55.684;37.928;2023-02-12T05:20:03;9.63;;;3.85;;
28509;SDS011;15723;55.684;37.928;2023-02-12T05:22:30;9.75;;;3.90;;
28509;SDS011;15723;55.684;37.928;2023-02-12T05:24:56;10.25;;;4.10;;
28509;SDS011;15723;55.684;37.928;2023-02-12T05:27:23;11.20;;;5.03;;
28509;SDS011;15723;55.684;37.928;2023-02-12T05:29:49;7.97;;;3.13;;
28509;SDS011;15723;55.684;37.928;2023-02-12T05:32:15;11.93;;;3.88;;
28509;SDS011;15723;55.684;37.928;2023-02-12T05:34:41;13.93;;;3.70;;
28509;SDS011;15723;55.684;37.928;2023-02-12T05:37:07;5.78;;;2.75;;
28509;SDS011;15723;55.684;37.928;2023-02-12T05:39:33;9.55;;;3.50;;
28509;SDS011;15723;55.684;37.928;2023-02-12T05:42:00;9.63;;;3.53;;
28509;SDS011;15723;55.684;37.928;2023-02-12T05:44:26;7.57;;;3.83;;
28509;SDS011;15723;55.684;37.928;2023-02-12T05:46:52;9.23;;;3.60;;
28509;SDS011;15723;55.684;37.928;2023-02-12T05:49:18;9.15;;;3.95;;
28509;SDS011;15723;55.684;37.928;2023-02-12T05:51:44;5.72;;;2.85;;
28509;SDS011;15723;55.684;37.928;2023-02-12T05:54:11;10.60;;;3.05;;
28509;SDS011;15723;55.684;37.928;2023-02-12T05:56:41;9.30;;;3.75;;
28509;SDS011;15723;55.684;37.928;2023-02-12T05:59:13;6.87;;;3.40;;
28509;SDS011;15723;55.684;37.928;2023-02-12T06:04:13;9.88;;;3.22;;
28509;SDS011;15723;55.684;37.928;2023-02-12T06:06:41;6.53;;;2.87;;
28509;SDS011;15723;55.684;37.928;2023-02-12T06:09:08;6.82;;;3.33;;
28509;SDS011;15723;55.684;37.928;2023-02-12T06:11:35;6.68;;;4.43;;
28509;SDS011;15723;55.684;37.928;2023-02-12T06:14:05;6.95;;;3.30;;
28509;SDS011;15723;55.684;37.928;2023-02-12T06:16:33;10.13;;;2.30;;
28509;SDS011;15723;55.684;37.928;2023-02-12T06:19:00;6.05;;;2.45;;
28509;SDS011;15723;55.684;37.928;2023-02-12T06:21:29;4.57;;;2.63;;
28509;SDS011;15723;55.684;37.928;2023-02-12T06:23:56;4.57;;;2.25;;
28509;SDS011;15723;55.684;37.928;2023-02-12T06:26:23;6.95;;;2.40;;
28509;SDS011;15723;55.684;37.928;2023-02-12T06:28:49;3.67;;;1.67;;
28509;SDS011;15723;55.684;37.928;2023-02-12T06:33:49;4.32;;;2.28;;
28509;SDS011;15723;55.684;37.928;2023-02-12T06:36:17;5.03;;;2.05;;
28509;SDS011;15723;55.684;37.928;2023-02-12T06:38:43;8.55;;;2.15;;
28509;SDS011;15723;55.684;37.928;2023-02-12T06:41:10;6.30;;;1.40;;
28509;SDS011;15723;55.684;37.928;2023-02-12T06:43:36;8.18;;;2.58;;
28509;SDS011;15723;55.684;37.928;2023-02-12T06:46:10;4.18;;;1.92;;
28509;SDS011;15723;55.684;37.928;2023-02-12T06:48:37;3.28;;;1.70;;
28509;SDS011;15723;55.684;37.928;2023-02-12T06:51:07;4.97;;;2.38;;
28509;SDS011;15723;55.684;37.928;2023-02-12T06:53:35;9.80;;;2.25;;
28509;SDS011;15723;55.684;37.928;2023-02-12T06:56:03;7.82;;;1.52;;
28509;SDS011;15723;55.684;37.928;2023-02-12T06:58:30;5.70;;;1.80;;
28509;SDS011;15723;55.684;37.928;2023-02-12T07:00:56;3.97;;;1.52;;
28509;SDS011;15723;55.684;37.928;2023-02-12T07:03:43;3.47;;;1.83;;
28509;SDS011;15723;55.684;37.928;2023-02-12T07:06:13;3.50;;;1.25;;
28509;SDS011;15723;55.684;37.928;2023-02-12T07:08:39;4.25;;;1.73;;
28509;SDS011;15723;55.684;37.928;2023-02-12T07:11:06;4.00;;;1.58;;
28509;SDS011;15723;55.684;37.928;2023-02-12T07:13:32;4.88;;;2.00;;
28509;SDS011;15723;55.684;37.928;2023-02-12T07:16:06;6.88;;;1.40;;
28509;SDS011;15723;55.684;37.928;2023-02-12T07:18:34;7.75;;;2.00;;
28509;SDS011;15723;55.684;37.928;2023-02-12T07:21:01;6.32;;;2.50;;
28509;SDS011;15723;55.684;37.928;2023-02-12T07:23:29;3.55;;;1.50;;
28509;SDS011;15723;55.684;37.928;2023-02-12T07:25:57;3.38;;;1.60;;
28509;SDS011;15723;55.684;37.928;2023-02-12T07:28:24;1.70;;;1.02;;
28509;SDS011;15723;55.684;37.928;2023-02-12T07:30:51;4.72;;;1.63;;
28509;SDS011;15723;55.684;37.928;2023-02-12T07:33:18;4.75;;;1.30;;
28509;SDS011;15723;55.684;37.928;2023-02-12T07:35:45;2.30;;;1.20;;
28509;SDS011;15723;55.684;37.928;2023-02-12T07:38:11;5.88;;;1.90;;
28509;SDS011;15723;55.684;37.928;2023-02-12T07:40:37;4.07;;;1.42;;
28509;SDS011;15723;55.684;37.928;2023-02-12T07:43:04;2.40;;;1.20;;
28509;SDS011;15723;55.684;37.928;2023-02-12T07:45:34;8.60;;;2.00;;
28509;SDS011;15723;55.684;37.928;2023-02-12T07:48:00;10.68;;;1.85;;
28509;SDS011;15723;55.684;37.928;2023-02-12T07:50:27;5.28;;;1.67;;
28509;SDS011;15723;55.684;37.928;2023-02-12T07:52:53;6.55;;;1.92;;
28509;SDS011;15723;55.684;37.928;2023-02-12T07:55:19;2.28;;;1.38;;
28509;SDS011;15723;55.684;37.928;2023-02-12T07:57:45;4.10;;;1.42;;
28509;SDS011;15723;55.684;37.928;2023-02-12T08:00:12;7.30;;;1.98;;
28509;SDS011;15723;55.684;37.928;2023-02-12T08:02:38;4.03;;;1.42;;
28509;SDS011;15723;55.684;37.928;2023-02-12T08:05:05;8.27;;;2.00;;
28509;SDS011;15723;55.684;37.928;2023-02-12T08:07:32;3.15;;;1.83;;
28509;SDS011;15723;55.684;37.928;2023-02-12T08:09:58;5.28;;;1.75;;
28509;SDS011;15723;55.684;37.928;2023-02-12T08:12:29;5.07;;;1.77;;
28509;SDS011;15723;55.684;37.928;2023-02-12T08:14:55;5.68;;;1.80;;
28509;SDS011;15723;55.684;37.928;2023-02-12T08:17:22;5.65;;;1.67;;
28509;SDS011;15723;55.684;37.928;2023-02-12T08:19:48;5.82;;;1.20;;
28509;SDS011;15723;55.684;37.928;2023-02-12T08:22:14;6.10;;;2.00;;
28509;SDS011;15723;55.684;37.928;2023-02-12T08:24:40;4.63;;;2.13;;
28509;SDS011;15723;55.684;37.928;2023-02-12T08:27:07;3.63;;;1.23;;
28509;SDS011;15723;55.684;37.928;2023-02-12T08:29:33;4.15;;;1.83;;
28509;SDS011;15723;55.684;37.928;2023-02-12T08:32:00;6.93;;;1.75;;
28509;SDS011;15723;55.684;37.928;2023-02-12T08:34:29;2.90;;;1.20;;
28509;SDS011;15723;55.684;37.928;2023-02-12T08:36:58;3.05;;;1.15;;
28509;SDS011;15723;55.684;37.928;2023-02-12T08:39:25;3.85;;;1.30;;
28509;SDS011;15723;55.684;37.928;2023-02-12T08:41:54;4.30;;;1.70;;
28509;SDS011;15723;55.684;37.928;2023-02-12T08:44:21;3.58;;;1.20;;
28509;SDS011;15723;55.684;37.928;2023-02-12T08:46:48;1.83;;;1.00;;
28509;SDS011;15723;55.684;37.928;2023-02-12T08:49:17;8.30;;;1.38;;
28509;SDS011;15723;55.684;37.928;2023-02-12T08:51:47;1.42;;;1.02;;
28509;SDS011;15723;55.684;37.928;2023-02-12T08:54:16;3.60;;;1.15;;
28509;SDS011;15723;55.684;37.928;2023-02-12T08:56:44;1.77;;;1.00;;
28509;SDS011;15723;55.684;37.928;2023-02-12T08:59:11;1.65;;;0.93;;
28509;SDS011;15723;55.684;37.928;2023-02-12T09:01:39;2.67;;;1.35;;
28509;SDS011;15723;55.684;37.928;2023-02-12T09:04:07;3.35;;;1.00;;
28509;SDS011;15723;55.684;37.928;2023-02-12T09:06:39;2.55;;;1.23;;
28509;SDS011;15723;55.684;37.928;2023-02-12T09:09:06;1.48;;;1.10;;
28509;SDS011;15723;55.684;37.928;2023-02-12T09:11:33;3.58;;;1.15;;
28509;SDS011;15723;55.684;37.928;2023-02-12T09:14:01;2.90;;;0.93;;
28509;SDS011;15723;55.684;37.928;2023-02-12T09:16:30;2.97;;;1.08;;
28509;SDS011;15723;55.684;37.928;2023-02-12T09:18:58;3.42;;;0.90;;
28509;SDS011;15723;55.684;37.928;2023-02-12T09:21:25;2.80;;;1.02;;
28509;SDS011;15723;55.684;37.928;2023-02-12T09:23:52;2.15;;;0.95;;
28509;SDS011;15723;55.684;37.928;2023-02-12T09:26:19;1.50;;;0.95;;
28509;SDS011;15723;55.684;37.928;2023-02-12T09:28:48;3.15;;;1.40;;
28509;SDS011;15723;55.684;37.928;2023-02-12T09:31:16;2.58;;;1.10;;
28509;SDS011;15723;55.684;37.928;2023-02-12T09:33:45;3.53;;;1.27;;
28509;SDS011;15723;55.684;37.928;2023-02-12T09:36:12;3.30;;;1.65;;
28509;SDS011;15723;55.684;37.928;2023-02-12T09:38:40;2.75;;;1.52;;
28509;SDS011;15723;55.684;37.928;2023-02-12T09:41:14;3.08;;;1.60;;
28509;SDS011;15723;55.684;37.928;2023-02-12T09:43:57;3.70;;;1.45;;
28509;SDS011;15723;55.684;37.928;2023-02-12T09:46:32;5.78;;;1.40;;
28509;SDS011;15723;55.684;37.928;2023-02-12T09:49:08;5.35;;;0.90;;
28509;SDS011;15723;55.684;37.928;2023-02-12T09:51:55;2.47;;;0.80;;
28509;SDS011;15723;55.684;37.928;2023-02-12T09:54:24;3.80;;;1.50;;
28509;SDS011;15723;55.684;37.928;2023-02-12T09:56:58;6.38;;;1.35;;
28509;SDS011;15723;55.684;37.928;2023-02-12T09:59:33;9.48;;;1.73;;
28509;SDS011;15723;55.684;37.928;2023-02-12T10:02:05;3.97;;;1.40;;
28509;SDS011;15723;55.684;37.928;2023-02-12T10:04:41;4.20;;;1.10;;
28509;SDS011;15723;55.684;37.928;2023-02-12T10:12:39;4.25;;;1.50;;
28509;SDS011;15723;55.684;37.928;2023-02-12T10:15:25;6.55;;;1.70;;
28509;SDS011;15723;55.684;37.928;2023-02-12T10:18:13;2.67;;;1.60;;
28509;SDS011;15723;55.684;37.928;2023-02-12T10:20:47;6.32;;;1.60;;
28509;SDS011;15723;55.684;37.928;2023-02-12T10:26:12;3.75;;;1.75;;
28509;SDS011;15723;55.684;37.928;2023-02-12T10:28:41;8.20;;;2.78;;
28509;SDS011;15723;55.684;37.928;2023-02-12T10:31:25;5.38;;;1.40;;
28509;SDS011;15723;55.684;37.928;2023-02-12T10:33:56;3.92;;;1.25;;
28509;SDS011;15723;55.684;37.928;2023-02-12T10:36:42;4.22;;;1.30;;
28509;SDS011;15723;55.684;37.928;2023-02-12T10:41:44;3.63;;;1.58;;
28509;SDS011;15723;55.684;37.928;2023-02-12T10:44:15;3.28;;;0.95;;
28509;SDS011;15723;55.684;37.928;2023-02-12T10:46:41;2.63;;;1.30;;
28509;SDS011;15723;55.684;37.928;2023-02-12T10:49:07;4.70;;;1.10;;
28509;SDS011;15723;55.684;37.928;2023-02-12T10:51:53;7.32;;;1.45;;
28509;SDS011;15723;55.684;37.928;2023-02-12T10:57:14;8.73;;;1.38;;
28509;SDS011;15723;55.684;37.928;2023-02-12T10:59:54;2.90;;;1.80;;
28509;SDS011;15723;55.684;37.928;2023-02-12T11:02:24;6.50;;;1.63;;
28509;SDS011;15723;55.684;37.928;2023-02-12T11:04:56;5.72;;;2.17;;
28509;SDS011;15723;55.684;37.928;2023-02-12T11:07:31;2.70;;;1.35;;
28509;SDS011;15723;55.684;37.928;2023-02-12T11:10:19;4.47;;;1.42;;
28509;SDS011;15723;55.684;37.928;2023-02-12T11:12:48;6.03;;;2.28;;
28509;SDS011;15723;55.684;37.928;2023-02-12T11:15:16;5.03;;;1.48;;
28509;SDS011;15723;55.684;37.928;2023-02-12T11:17:54;5.05;;;1.23;;
28509;SDS011;15723;55.684;37.928;2023-02-12T11:20:31;2.35;;;1.17;;
28509;SDS011;15723;55.684;37.928;2023-02-12T11:23:20;4.32;;;1.15;;
28509;SDS011;15723;55.684;37.928;2023-02-12T11:28:57;1.92;;;1.00;;
28509;SDS011;15723;55.684;37.928;2023-02-12T11:36:29;5.45;;;1.25;;
28509;SDS011;15723;55.684;37.928;2023-02-12T11:39:00;1.70;;;0.80;;
28509;SDS011;15723;55.684;37.928;2023-02-12T11:41:34;1.35;;;0.65;;
28509;SDS011;15723;55.684;37.928;2023-02-12T11:45:03;4.15;;;1.23;;
28509;SDS011;15723;55.684;37.928;2023-02-12T11:47:24;2.97;;;0.82;;
28509;SDS011;15723;55.684;37.928;2023-02-12T11:52:52;5.68;;;1.08;;
28509;SDS011;15723;55.684;37.928;2023-02-12T11:55:23;2.90;;;0.90;;
28509;SDS011;15723;55.684;37.928;2023-02-12T11:57:52;2.75;;;0.80;;
28509;SDS011;15723;55.684;37.928;2023-02-12T12:00:28;1.65;;;0.80;;
28509;SDS011;15723;55.684;37.928;2023-02-12T12:03:05;2.50;;;0.90;;
28509;SDS011;15723;55.684;37.928;2023-02-12T12:05:51;2.00;;;0.90;;
28509;SDS011;15723;55.684;37.928;2023-02-12T12:08:29;2.45;;;0.82;;
28509;SDS011;15723;55.684;37.928;2023-02-12T12:11:14;3.20;;;1.08;;
28509;SDS011;15723;55.684;37.928;2023-02-12T12:14:04;3.80;;;0.98;;
28509;SDS011;15723;55.684;37.928;2023-02-12T12:17:11;2.80;;;1.17;;
28509;SDS011;15723;55.684;37.928;2023-02-12T12:20:09;3.47;;;0.95;;
28509;SDS011;15723;55.684;37.928;2023-02-12T12:22:49;3.00;;;1.00;;
28509;SDS011;15723;55.684;37.928;2023-02-12T12:25:36;6.30;;;1.40;;
28509;SDS011;15723;55.684;37.928;2023-02-12T12:31:01;3.80;;;1.33;;
28509;SDS011;15723;55.684;37.928;2023-02-12T12:36:47;2.70;;;1.08;;
28509;SDS011;15723;55.684;37.928;2023-02-12T12:39:46;3.20;;;1.27;;
28509;SDS011;15723;55.684;37.928;2023-02-12T12:44:57;4.60;;;1.20;;
28509;SDS011;15723;55.684;37.928;2023-02-12T12:53:24;2.03;;;1.23;;
28509;SDS011;15723;55.684;37.928;2023-02-12T12:59:44;4.35;;;0.88;;
28509;SDS011;15723;55.684;37.928;2023-02-12T13:08:19;2.75;;;0.80;;
28509;SDS011;15723;55.684;37.928;2023-02-12T13:11:05;2.13;;;0.80;;
28509;SDS011;15723;55.684;37.928;2023-02-12T13:13:52;2.13;;;1.00;;
28509;SDS011;15723;55.684;37.928;2023-02-12T13:16:47;6.07;;;1.05;;
28509;SDS011;15723;55.684;37.928;2023-02-12T13:19:23;2.33;;;0.75;;
28509;SDS011;15723;55.684;37.928;2023-02-12T13:22:05;2.50;;;0.90;;
28509;SDS011;15723;55.684;37.928;2023-02-12T13:27:38;4.63;;;1.77;;
28509;SDS011;15723;55.684;37.928;2023-02-12T13:32:49;4.10;;;1.48;;
28509;SDS011;15723;55.684;37.928;2023-02-12T13:35:36;1.33;;;0.75;;
28509;SDS011;15723;55.684;37.928;2023-02-12T13:38:10;2.88;;;1.00;;
28509;SDS011;15723;55.684;37.928;2023-02-12T13:40:55;3.05;;;0.90;;
28509;SDS011;15723;55.684;37.928;2023-02-12T13:49:06;1.25;;;0.88;;
28509;SDS011;15723;55.684;37.928;2023-02-12T13:51:46;4.47;;;1.67;;
28509;SDS011;15723;55.684;37.928;2023-02-12T13:56:59;1.70;;;0.90;;
28509;SDS011;15723;55.684;37.928;2023-02-12T13:59:37;3.40;;;0.90;;
28509;SDS011;15723;55.684;37.928;2023-02-12T14:02:23;4.10;;;1.08;;
28509;SDS011;15723;55.684;37.928;2023-02-12T14:07:48;3.15;;;1.17;;
28509;SDS011;15723;55.684;37.928;2023-02-12T14:10:36;3.13;;;1.30;;
28509;SDS011;15723;55.684;37.928;2023-02-12T14:15:35;2.85;;;1.08;;
28509;SDS011;15723;55.684;37.928;2023-02-12T14:18:42;1.05;;;0.85;;
28509;SDS011;15723;55.684;37.928;2023-02-12T14:23:38;4.47;;;1.50;;
28509;SDS011;15723;55.684;37.928;2023-02-12T14:26:18;3.78;;;1.65;;
28509;SDS011;15723;55.684;37.928;2023-02-12T14:28:51;4.82;;;1.30;;
28509;SDS011;15723;55.684;37.928;2023-02-12T14:31:27;3.67;;;1.42;;
28509;SDS011;15723;55.684;37.928;2023-02-12T14:36:36;4.03;;;1.73;;
28509;SDS011;15723;55.684;37.928;2023-02-12T14:41:46;3.72;;;1.50;;
28509;SDS011;15723;55.684;37.928;2023-02-12T14:44:54;4.10;;;1.80;;
28509;SDS011;15723;55.684;37.928;2023-02-12T14:49:53;3.10;;;1.20;;
28509;SDS011;15723;55.684;37.928;2023-02-12T14:52:29;4.13;;;1.52;;
28509;SDS011;15723;55.684;37.928;2023-02-12T14:55:04;7.22;;;2.42;;
28509;SDS011;15723;55.684;37.928;2023-02-12T14:57:39;7.85;;;3.58;;
28509;SDS011;15723;55.684;37.928;2023-02-12T15:00:18;5.38;;;2.53;;
28509;SDS011;15723;55.684;37.928;2023-02-12T15:05:17;4.55;;;1.45;;
28509;SDS011;15723;55.684;37.928;2023-02-12T15:07:52;2.75;;;1.50;;
28509;SDS011;15723;55.684;37.928;2023-02-12T15:10:33;2.75;;;1.58;;
28509;SDS011;15723;55.684;37.928;2023-02-12T15:13:15;2.80;;;1.45;;
28509;SDS011;15723;55.684;37.928;2023-02-12T15:15:49;3.97;;;1.58;;
28509;SDS011;15723;55.684;37.928;2023-02-12T15:21:08;3.35;;;1.40;;
28509;SDS011;15723;55.684;37.928;2023-02-12T15:23:45;3.13;;;1.40;;
28509;SDS011;15723;55.684;37.928;2023-02-12T15:26:21;2.85;;;1.98;;
28509;SDS011;15723;55.684;37.928;2023-02-12T15:28:50;2.22;;;1.52;;
28509;SDS011;15723;55.684;37.928;2023-02-12T15:31:19;7.05;;;2.05;;
28509;SDS011;15723;55.684;37.928;2023-02-12T15:33:51;4.70;;;1.67;;
28509;SDS011;15723;55.684;37.928;2023-02-12T15:36:21;7.22;;;1.90;;
28509;SDS011;15723;55.684;37.928;2023-02-12T15:38:51;2.55;;;1.20;;
28509;SDS011;15723;55.684;37.928;2023-02-12T15:43:59;5.50;;;1.90;;
28509;SDS011;15723;55.684;37.928;2023-02-12T15:46:26;6.15;;;1.52;;
28509;SDS011;15723;55.684;37.928;2023-02-12T15:48:53;2.65;;;1.30;;
28509;SDS011;15723;55.684;37.928;2023-02-12T15:53:57;2.60;;;1.50;;
28509;SDS011;15723;55.684;37.928;2023-02-12T15:56:25;7.25;;;1.85;;
28509;SDS011;15723;55.684;37.928;2023-02-12T15:58:56;2.50;;;1.55;;
28509;SDS011;15723;55.684;37.928;2023-02-12T16:01:25;3.53;;;1.35;;
28509;SDS011;15723;55.684;37.928;2023-02-12T16:03:57;4.22;;;1.83;;
28509;SDS011;15723;55.684;37.928;2023-02-12T16:06:26;3.73;;;1.80;;
28509;SDS011;15723;55.684;37.928;2023-02-12T16:11:42;3.42;;;1.65;;
28509;SDS011;15723;55.684;37.928;2023-02-12T16:14:18;3.75;;;1.60;;
28509;SDS011;15723;55.684;37.928;2023-02-12T16:16:49;7.55;;;1.92;;
28509;SDS011;15723;55.684;37.928;2023-02-12T16:21:46;6.18;;;2.00;;
28509;SDS011;15723;55.684;37.928;2023-02-12T16:24:35;5.30;;;1.90;;
28509;SDS011;15723;55.684;37.928;2023-02-12T16:27:37;7.15;;;2.25;;
28509;SDS011;15723;55.684;37.928;2023-02-12T16:29:59;3.70;;;2.08;;
28509;SDS011;15723;55.684;37.928;2023-02-12T16:32:39;8.20;;;1.80;;
28509;SDS011;15723;55.684;37.928;2023-02-12T16:40:16;8.40;;;2.58;;
28509;SDS011;15723;55.684;37.928;2023-02-12T16:42:54;5.57;;;2.28;;
28509;SDS011;15723;55.684;37.928;2023-02-12T16:47:53;7.90;;;2.83;;
28509;SDS011;15723;55.684;37.928;2023-02-12T16:50:24;6.90;;;2.17;;
28509;SDS011;15723;55.684;37.928;2023-02-12T16:52:59;3.53;;;1.65;;
28509;SDS011;15723;55.684;37.928;2023-02-12T16:55:27;5.00;;;2.30;;
28509;SDS011;15723;55.684;37.928;2023-02-12T16:57:54;3.88;;;1.90;;
28509;SDS011;15723;55.684;37.928;2023-02-12T17:00:20;3.28;;;2.08;;
28509;SDS011;15723;55.684;37.928;2023-02-12T17:02:47;8.88;;;2.50;;
28509;SDS011;15723;55.684;37.928;2023-02-12T17:05:13;4.45;;;2.03;;
28509;SDS011;15723;55.684;37.928;2023-02-12T17:07:42;7.28;;;2.20;;
28509;SDS011;15723;55.684;37.928;2023-02-12T17:10:12;6.25;;;2.15;;
28509;SDS011;15723;55.684;37.928;2023-02-12T17:12:45;5.45;;;2.42;;
28509;SDS011;15723;55.684;37.928;2023-02-12T17:15:26;4.43;;;1.90;;
28509;SDS011;15723;55.684;37.928;2023-02-12T17:17:58;5.30;;;2.38;;
28509;SDS011;15723;55.684;37.928;2023-02-12T17:20:24;6.47;;;2.08;;
28509;SDS011;15723;55.684;37.928;2023-02-12T17:22:51;8.68;;;2.70;;
28509;SDS011;15723;55.684;37.928;2023-02-12T17:25:19;5.65;;;2.25;;